createdAt,value
2018-07-23T00:01:03.607Z,4.60
2018-07-23T00:06:09.014Z,4.67
2018-07-23T00:11:13.654Z,5.53
2018-07-23T00:16:18.930Z,5.58
2018-07-23T00:21:23.641Z,5.95
2018-07-23T00:26:29.145Z,5.65
2018-07-23T00:31:33.743Z,6.45
2018-07-23T00:36:38.837Z,6.12
2018-07-23T00:41:43.555Z,7.25
2018-07-23T00:46:48.265Z,7.30
2018-07-23T00:51:52.787Z,7.17
2018-07-23T00:56:57.498Z,7.55
2018-07-23T01:02:02.096Z,7.85
2018-07-23T01:07:06.930Z,7.90
2018-07-23T01:12:11.972Z,9.08
2018-07-23T01:17:16.620Z,9.48
2018-07-23T01:22:21.657Z,9.45
2018-07-23T01:27:26.574Z,9.13
2018-07-23T01:32:31.804Z,9.05
2018-07-23T01:37:36.608Z,9.73
2018-07-23T01:42:41.289Z,10.85
2018-07-23T01:47:46.495Z,10.63
2018-07-23T01:52:51.240Z,9.90
2018-07-23T01:57:56.121Z,10.08
2018-07-23T02:03:01.171Z,9.70
2018-07-23T02:08:06.017Z,9.43
2018-07-23T02:13:10.568Z,9.45
2018-07-23T02:18:15.310Z,9.83
2018-07-23T02:23:20.090Z,10.28
2018-07-23T02:28:24.662Z,9.58
2018-07-23T02:33:29.484Z,10.50
2018-07-23T02:38:34.197Z,11.48
2018-07-23T02:43:38.959Z,10.88
2018-07-23T02:48:44.130Z,10.40
2018-07-23T02:53:48.988Z,10.28
2018-07-23T02:58:54.369Z,10.28
2018-07-23T03:03:59.154Z,11.70
2018-07-23T03:09:04.343Z,10.78
2018-07-23T03:14:09.235Z,9.85
2018-07-23T03:19:13.945Z,10.75
2018-07-23T03:24:19.141Z,10.13
2018-07-23T03:29:24.098Z,10.65
2018-07-23T03:34:28.779Z,11.00
2018-07-23T03:39:33.764Z,10.15
2018-07-23T03:44:38.549Z,9.80
2018-07-23T03:49:43.541Z,8.70
2018-07-23T03:54:48.457Z,9.48
2018-07-23T03:59:53.360Z,8.40
2018-07-23T04:04:57.972Z,8.70
2018-07-23T04:10:02.973Z,8.60
2018-07-23T04:15:08.094Z,9.58
2018-07-23T04:20:12.801Z,9.00
2018-07-23T04:25:17.604Z,8.68
2018-07-23T04:30:22.502Z,9.70
2018-07-23T04:35:27.873Z,11.03
2018-07-23T04:40:32.900Z,10.18
2018-07-23T04:45:37.545Z,10.08
2018-07-23T04:50:42.235Z,10.30
2018-07-23T04:55:47.035Z,9.93
2018-07-23T05:00:52.219Z,9.85
2018-07-23T05:05:56.910Z,9.78
2018-07-23T05:11:02.258Z,9.03
2018-07-23T05:16:06.980Z,9.13
2018-07-23T05:21:11.781Z,8.83
2018-07-23T05:26:16.543Z,7.95
2018-07-23T05:31:21.386Z,9.03
2018-07-23T05:36:26.182Z,9.50
2018-07-23T05:41:30.921Z,9.10
2018-07-23T05:46:35.560Z,9.70
2018-07-23T05:51:40.525Z,10.30
2018-07-23T05:56:45.360Z,9.78
2018-07-23T06:01:50.100Z,9.95
2018-07-23T06:06:55.063Z,10.43
2018-07-23T06:11:59.548Z,10.65
2018-07-23T06:17:04.435Z,10.45
2018-07-23T06:22:09.209Z,10.63
2018-07-23T06:27:13.868Z,11.18
2018-07-23T06:32:18.649Z,11.30
2018-07-23T06:37:23.375Z,10.68
2018-07-23T06:42:27.944Z,12.13
2018-07-23T06:47:32.665Z,11.00
2018-07-23T06:52:37.386Z,11.08
2018-07-23T06:57:42.465Z,11.03
2018-07-23T07:02:47.308Z,10.45
2018-07-23T07:07:51.780Z,10.10
2018-07-23T07:12:57.212Z,9.98
2018-07-23T07:18:02.542Z,8.90
2018-07-23T07:23:07.433Z,9.75
2018-07-23T07:28:12.015Z,8.50
2018-07-23T07:33:17.456Z,8.45
2018-07-23T07:38:22.091Z,8.98
2018-07-23T07:43:26.754Z,9.68
2018-07-23T07:48:31.548Z,11.22
2018-07-23T07:53:36.544Z,10.75
2018-07-23T07:58:41.281Z,10.03
2018-07-23T08:03:46.266Z,10.32
2018-07-23T08:08:50.824Z,10.90
2018-07-23T08:13:55.375Z,11.28
2018-07-23T08:19:00.584Z,11.25
2018-07-23T08:24:06.608Z,11.08
2018-07-23T08:29:26.949Z,13.35
2018-07-23T08:34:31.777Z,16.15
2018-07-23T08:39:36.657Z,16.75
2018-07-23T08:44:44.364Z,14.55
2018-07-23T08:49:49.644Z,16.10
2018-07-23T08:54:54.532Z,15.58
2018-07-23T08:59:59.179Z,13.32
2018-07-23T09:05:04.431Z,13.78
2018-07-23T09:10:09.975Z,13.05
2018-07-23T09:15:14.773Z,13.00
2018-07-23T09:20:19.362Z,13.10
2018-07-23T09:25:27.472Z,12.88
2018-07-23T09:30:37.338Z,14.70
2018-07-23T09:35:41.985Z,13.62
2018-07-23T09:40:46.830Z,16.30
2018-07-23T09:45:51.399Z,15.20
2018-07-23T09:50:56.876Z,15.88
2018-07-23T09:56:01.650Z,15.43
2018-07-23T10:01:12.598Z,15.50
2018-07-23T10:06:17.531Z,17.98
2018-07-23T10:11:22.981Z,14.53
2018-07-23T10:16:28.141Z,16.23
2018-07-23T10:21:32.857Z,14.98
2018-07-23T10:26:37.392Z,13.75
2018-07-23T10:31:42.127Z,15.75
2018-07-23T10:36:46.968Z,14.15
2018-07-23T10:41:52.512Z,11.00
2018-07-23T10:46:57.377Z,10.85
2018-07-23T10:52:02.115Z,9.03
2018-07-23T10:57:06.764Z,8.83
2018-07-23T11:02:11.534Z,9.68
2018-07-23T11:07:16.262Z,9.33
2018-07-23T11:12:20.872Z,9.35
2018-07-23T11:17:25.603Z,6.90
2018-07-23T11:22:30.454Z,7.40
2018-07-23T11:27:35.703Z,8.15
2018-07-23T11:32:40.177Z,7.87
2018-07-23T11:37:44.850Z,5.95
2018-07-23T11:42:49.840Z,8.55
2018-07-23T11:47:54.309Z,6.00
2018-07-23T11:52:58.495Z,5.33
2018-07-23T11:58:03.208Z,6.50
2018-07-23T12:03:08.044Z,6.80
2018-07-23T12:08:12.776Z,5.67
2018-07-23T12:13:17.448Z,4.92
2018-07-23T12:18:22.056Z,4.30
2018-07-23T12:23:26.651Z,4.87
2018-07-23T12:28:31.409Z,4.83
2018-07-23T12:33:36.140Z,4.80
2018-07-23T12:38:41.513Z,4.67
2018-07-23T12:43:46.231Z,5.22
2018-07-23T12:48:50.858Z,5.15
2018-07-23T12:53:55.585Z,5.05
2018-07-23T12:59:00.356Z,4.97
2018-07-23T13:04:05.013Z,5.45
2018-07-23T13:09:12.062Z,6.65
2018-07-23T13:14:16.833Z,6.35
2018-07-23T13:19:21.661Z,6.85
2018-07-23T13:24:26.229Z,6.40
2018-07-23T13:29:30.788Z,6.33
2018-07-23T13:34:35.444Z,4.92
2018-07-23T13:39:40.185Z,5.25
2018-07-23T13:44:45.429Z,4.75
2018-07-23T13:49:51.093Z,6.15
2018-07-23T13:54:56.065Z,5.47
2018-07-23T14:00:01.070Z,6.53
2018-07-23T14:05:05.855Z,5.12
2018-07-23T14:10:10.567Z,5.55
2018-07-23T14:15:15.314Z,5.92
2018-07-23T14:20:20.350Z,5.58
2018-07-23T14:25:25.091Z,4.83
2018-07-23T14:30:29.912Z,4.78
2018-07-23T14:35:34.719Z,6.25
2018-07-23T14:40:39.488Z,5.90
2018-07-23T14:45:44.408Z,6.67
2018-07-23T14:50:49.865Z,5.78
2018-07-23T14:55:54.817Z,5.45
2018-07-23T15:00:59.521Z,5.10
2018-07-23T15:06:04.372Z,6.45
2018-07-23T15:11:09.277Z,6.92
2018-07-23T15:16:13.962Z,6.22
2018-07-23T15:21:18.992Z,6.80
2018-07-23T15:26:23.888Z,6.72
2018-07-23T15:31:28.764Z,6.85
2018-07-23T15:36:33.740Z,6.08
2018-07-23T15:41:38.570Z,6.78
2018-07-23T15:46:43.399Z,6.47
2018-07-23T15:51:48.125Z,5.70
2018-07-23T15:56:52.860Z,5.60
2018-07-23T16:01:57.879Z,5.95
2018-07-23T16:07:02.743Z,6.70
2018-07-23T16:12:07.570Z,6.33
2018-07-23T16:17:12.274Z,6.65
2018-07-23T16:22:16.982Z,6.70
2018-07-23T16:27:21.656Z,7.05
2018-07-23T16:32:26.836Z,7.25
2018-07-23T16:37:32.168Z,5.90
2018-07-23T16:42:36.938Z,6.60
2018-07-23T16:47:42.508Z,6.45
2018-07-23T16:52:47.058Z,7.22
2018-07-23T16:57:51.819Z,6.80
2018-07-23T17:02:56.578Z,6.55
2018-07-23T17:08:01.271Z,7.47
2018-07-23T17:13:05.861Z,7.25
2018-07-23T17:18:10.746Z,7.37
2018-07-23T17:23:15.479Z,6.65
2018-07-23T17:28:20.151Z,8.30
2018-07-23T17:33:24.771Z,7.67
2018-07-23T17:38:29.715Z,7.03
2018-07-23T17:43:34.468Z,7.10
2018-07-23T17:48:39.283Z,7.17
2018-07-23T17:53:44.050Z,8.05
2018-07-23T17:58:49.588Z,7.37
2018-07-23T18:03:54.440Z,7.35
2018-07-23T18:08:59.281Z,6.85
2018-07-23T18:14:04.227Z,7.50
2018-07-23T18:19:08.861Z,7.70
2018-07-23T18:24:13.677Z,6.85
2018-07-23T18:29:18.319Z,7.00
2018-07-23T18:34:22.942Z,7.12
2018-07-23T18:39:27.503Z,7.72
2018-07-23T18:44:32.435Z,8.43
2018-07-23T18:49:48.976Z,8.28
2018-07-23T18:54:55.995Z,7.37
2018-07-23T19:00:01.406Z,8.15
2018-07-23T19:05:06.815Z,8.65
2018-07-23T19:10:11.514Z,8.00
2018-07-23T19:15:16.184Z,7.70
2018-07-23T19:20:21.134Z,7.70
2018-07-23T19:25:26.700Z,7.92
2018-07-23T19:30:32.408Z,8.18
2018-07-23T19:35:37.003Z,8.40
2018-07-23T19:40:41.684Z,8.38
2018-07-23T19:45:46.260Z,8.20
2018-07-23T19:50:51.314Z,8.35
2018-07-23T19:55:56.145Z,8.78
2018-07-23T20:01:00.990Z,9.15
2018-07-23T20:06:05.719Z,9.30
2018-07-23T20:11:11.221Z,8.65
2018-07-23T20:16:16.102Z,8.68
2018-07-23T20:21:20.941Z,8.73
2018-07-23T20:26:25.691Z,9.70
2018-07-23T20:31:30.280Z,10.20
2018-07-23T20:36:35.446Z,9.60
2018-07-23T20:41:40.241Z,9.25
2018-07-23T20:46:45.362Z,9.38
2018-07-23T20:51:50.437Z,9.83
2018-07-23T20:56:55.212Z,10.45
2018-07-23T21:01:59.844Z,10.75
2018-07-23T21:07:04.829Z,10.80
2018-07-23T21:12:09.807Z,10.65
2018-07-23T21:17:14.592Z,10.32
2018-07-23T21:22:19.441Z,11.03
2018-07-23T21:27:24.104Z,10.82
2018-07-23T21:32:28.929Z,9.75
2018-07-23T21:37:34.532Z,9.68
2018-07-23T21:42:39.288Z,10.40
2018-07-23T21:47:44.377Z,11.45
2018-07-23T21:52:49.708Z,10.53
2018-07-23T21:57:55.097Z,11.33
2018-07-23T22:03:00.493Z,11.60
2018-07-23T22:08:05.606Z,11.63
2018-07-23T22:13:10.592Z,11.35
2018-07-23T22:18:15.317Z,11.40
2018-07-23T22:23:19.944Z,11.25
2018-07-23T22:28:25.897Z,10.93
2018-07-23T22:33:31.243Z,11.00
2018-07-23T22:38:35.941Z,11.33
2018-07-23T22:43:40.741Z,11.80
2018-07-23T22:48:45.562Z,12.10
2018-07-23T22:53:50.294Z,11.48
2018-07-23T22:58:55.886Z,11.68
2018-07-23T23:04:00.933Z,12.55
2018-07-23T23:09:07.851Z,11.30
2018-07-23T23:14:12.517Z,12.23
2018-07-23T23:19:17.376Z,11.57
2018-07-23T23:24:22.218Z,11.85
2018-07-23T23:29:26.876Z,11.18
2018-07-23T23:34:31.684Z,11.85
2018-07-23T23:39:36.323Z,12.03
2018-07-23T23:44:41.164Z,12.43
2018-07-23T23:49:46.112Z,12.05
2018-07-23T23:54:50.829Z,12.63
2018-07-23T23:59:55.489Z,12.93
